sensor_id;sensor_type;location;lat;lon;timestamp;P1;durP1;ratioP1;P2;durP2;ratioP2
77821;SDS011;67012;53.712;10.728;2024-03-02T08:13:59;37.30;;;19.83;;
77821;SDS011;67012;53.712;10.728;2024-03-02T08:16:24;41.78;;;20.33;;
77821;SDS011;67012;53.712;10.728;2024-03-02T08:18:50;41.95;;;20.30;;
77821;SDS011;67012;53.712;10.728;2024-03-02T08:21:16;40.40;;;19.03;;
77821;SDS011;67012;53.712;10.728;2024-03-02T08:23:42;38.97;;;18.95;;
77821;SDS011;67012;53.712;10.728;2024-03-02T08:26:07;37.30;;;19.52;;
77821;SDS011;67012;53.712;10.728;2024-03-02T08:28:33;40.78;;;19.70;;
77821;SDS011;67012;53.712;10.728;2024-03-02T08:30:58;39.95;;;20.25;;
77821;SDS011;67012;53.712;10.728;2024-03-02T08:33:23;41.90;;;20.60;;
77821;SDS011;67012;53.712;10.728;2024-03-02T08:35:49;40.88;;;19.80;;
77821;SDS011;67012;53.712;10.728;2024-03-02T08:38:14;41.23;;;19.30;;
77821;SDS011;67012;53.712;10.728;2024-03-02T08:40:39;40.13;;;20.43;;
77821;SDS011;67012;53.712;10.728;2024-03-02T08:43:04;39.53;;;20.53;;
77821;SDS011;67012;53.712;10.728;2024-03-02T08:45:30;36.10;;;18.73;;
77821;SDS011;67012;53.712;10.728;2024-03-02T08:47:55;39.10;;;18.50;;
77821;SDS011;67012;53.712;10.728;2024-03-02T08:50:20;36.67;;;18.88;;
77821;SDS011;67012;53.712;10.728;2024-03-02T08:52:45;39.30;;;20.37;;
77821;SDS011;67012;53.712;10.728;2024-03-02T08:55:11;37.73;;;19.97;;
77821;SDS011;67012;53.712;10.728;2024-03-02T08:57:36;44.97;;;19.73;;
77821;SDS011;67012;53.712;10.728;2024-03-02T09:00:01;42.45;;;20.92;;
77821;SDS011;67012;53.712;10.728;2024-03-02T09:02:27;37.70;;;19.63;;
77821;SDS011;67012;53.712;10.728;2024-03-02T09:04:52;38.57;;;20.43;;
77821;SDS011;67012;53.712;10.728;2024-03-02T09:07:18;37.87;;;19.30;;
77821;SDS011;67012;53.712;10.728;2024-03-02T09:09:43;35.33;;;19.83;;
77821;SDS011;67012;53.712;10.728;2024-03-02T09:12:08;37.73;;;21.73;;
77821;SDS011;67012;53.712;10.728;2024-03-02T09:14:34;38.30;;;21.10;;
77821;SDS011;67012;53.712;10.728;2024-03-02T09:17:00;34.00;;;19.23;;
77821;SDS011;67012;53.712;10.728;2024-03-02T09:19:25;37.87;;;19.73;;
77821;SDS011;67012;53.712;10.728;2024-03-02T09:21:50;35.20;;;19.13;;
77821;SDS011;67012;53.712;10.728;2024-03-02T09:24:15;41.10;;;19.70;;
77821;SDS011;67012;53.712;10.728;2024-03-02T09:26:40;32.87;;;18.90;;
77821;SDS011;67012;53.712;10.728;2024-03-02T09:29:06;34.30;;;19.27;;
77821;SDS011;67012;53.712;10.728;2024-03-02T09:31:31;35.90;;;19.48;;
77821;SDS011;67012;53.712;10.728;2024-03-02T09:33:56;35.97;;;18.43;;
77821;SDS011;67012;53.712;10.728;2024-03-02T09:36:22;36.85;;;19.60;;
77821;SDS011;67012;53.712;10.728;2024-03-02T09:38:47;36.47;;;19.13;;
77821;SDS011;67012;53.712;10.728;2024-03-02T09:41:13;34.83;;;17.87;;
77821;SDS011;67012;53.712;10.728;2024-03-02T09:43:38;31.25;;;17.77;;
77821;SDS011;67012;53.712;10.728;2024-03-02T09:46:04;28.95;;;16.35;;
77821;SDS011;67012;53.712;10.728;2024-03-02T09:48:29;26.63;;;16.80;;
77821;SDS011;67012;53.712;10.728;2024-03-02T09:50:55;30.90;;;16.23;;
77821;SDS011;67012;53.712;10.728;2024-03-02T09:53:20;31.77;;;16.20;;
77821;SDS011;67012;53.712;10.728;2024-03-02T09:55:46;29.77;;;16.27;;
77821;SDS011;67012;53.712;10.728;2024-03-02T09:58:11;30.55;;;16.67;;
77821;SDS011;67012;53.712;10.728;2024-03-02T10:00:37;32.65;;;18.20;;
77821;SDS011;67012;53.712;10.728;2024-03-02T10:03:02;32.27;;;15.83;;
77821;SDS011;67012;53.712;10.728;2024-03-02T10:05:27;30.92;;;17.02;;
77821;SDS011;67012;53.712;10.728;2024-03-02T10:08:00;28.27;;;16.20;;
77821;SDS011;67012;53.712;10.728;2024-03-02T10:10:27;28.13;;;15.70;;
77821;SDS011;67012;53.712;10.728;2024-03-02T10:13:08;27.83;;;15.90;;
77821;SDS011;67012;53.712;10.728;2024-03-02T10:15:34;25.35;;;15.40;;
77821;SDS011;67012;53.712;10.728;2024-03-02T10:17:59;29.20;;;15.98;;
77821;SDS011;67012;53.712;10.728;2024-03-02T10:20:25;25.60;;;14.33;;
77821;SDS011;67012;53.712;10.728;2024-03-02T10:22:50;32.33;;;15.95;;
77821;SDS011;67012;53.712;10.728;2024-03-02T10:25:29;29.55;;;14.70;;
77821;SDS011;67012;53.712;10.728;2024-03-02T10:27:56;26.10;;;14.55;;
77821;SDS011;67012;53.712;10.728;2024-03-02T10:30:22;23.20;;;13.73;;
77821;SDS011;67012;53.712;10.728;2024-03-02T10:32:48;22.73;;;12.63;;
77821;SDS011;67012;53.712;10.728;2024-03-02T10:35:14;22.88;;;12.98;;
77821;SDS011;67012;53.712;10.728;2024-03-02T10:37:39;26.50;;;12.60;;
77821;SDS011;67012;53.712;10.728;2024-03-02T10:40:05;22.58;;;12.38;;
77821;SDS011;67012;53.712;10.728;2024-03-02T10:42:31;22.80;;;13.13;;
77821;SDS011;67012;53.712;10.728;2024-03-02T10:44:56;26.88;;;14.15;;
77821;SDS011;67012;53.712;10.728;2024-03-02T10:47:21;27.93;;;14.73;;
77821;SDS011;67012;53.712;10.728;2024-03-02T10:49:48;25.05;;;14.52;;
77821;SDS011;67012;53.712;10.728;2024-03-02T10:52:14;21.35;;;13.57;;
77821;SDS011;67012;53.712;10.728;2024-03-02T10:54:40;24.40;;;14.03;;
77821;SDS011;67012;53.712;10.728;2024-03-02T10:57:05;24.40;;;13.40;;
77821;SDS011;67012;53.712;10.728;2024-03-02T10:59:35;24.88;;;12.57;;
77821;SDS011;67012;53.712;10.728;2024-03-02T11:02:02;22.23;;;12.45;;
77821;SDS011;67012;53.712;10.728;2024-03-02T11:04:28;21.67;;;12.65;;
77821;SDS011;67012;53.712;10.728;2024-03-02T11:06:55;20.98;;;12.50;;
77821;SDS011;67012;53.712;10.728;2024-03-02T11:09:24;27.25;;;13.50;;
77821;SDS011;67012;53.712;10.728;2024-03-02T11:11:54;21.73;;;12.45;;
77821;SDS011;67012;53.712;10.728;2024-03-02T11:14:21;19.27;;;12.27;;
77821;SDS011;67012;53.712;10.728;2024-03-02T11:16:48;18.55;;;10.55;;
77821;SDS011;67012;53.712;10.728;2024-03-02T11:19:14;18.73;;;11.50;;
77821;SDS011;67012;53.712;10.728;2024-03-02T11:21:40;18.88;;;10.73;;
77821;SDS011;67012;53.712;10.728;2024-03-02T11:26:46;18.88;;;10.75;;
77821;SDS011;67012;53.712;10.728;2024-03-02T11:29:25;18.30;;;11.00;;
77821;SDS011;67012;53.712;10.728;2024-03-02T11:31:59;18.52;;;10.52;;
77821;SDS011;67012;53.712;10.728;2024-03-02T11:34:30;23.15;;;10.77;;
77821;SDS011;67012;53.712;10.728;2024-03-02T11:36:57;15.50;;;10.68;;
77821;SDS011;67012;53.712;10.728;2024-03-02T11:39:22;16.88;;;10.68;;
77821;SDS011;67012;53.712;10.728;2024-03-02T11:41:47;17.67;;;10.70;;
77821;SDS011;67012;53.712;10.728;2024-03-02T11:44:12;14.80;;;9.07;;
77821;SDS011;67012;53.712;10.728;2024-03-02T11:46:39;14.38;;;8.63;;
77821;SDS011;67012;53.712;10.728;2024-03-02T11:49:04;17.40;;;10.63;;
77821;SDS011;67012;53.712;10.728;2024-03-02T11:51:30;14.47;;;9.40;;
77821;SDS011;67012;53.712;10.728;2024-03-02T11:53:56;14.43;;;9.10;;
77821;SDS011;67012;53.712;10.728;2024-03-02T11:56:23;14.32;;;8.27;;
77821;SDS011;67012;53.712;10.728;2024-03-02T11:58:51;13.55;;;8.80;;
77821;SDS011;67012;53.712;10.728;2024-03-02T12:01:18;13.27;;;7.82;;
77821;SDS011;67012;53.712;10.728;2024-03-02T12:03:44;16.17;;;8.48;;
77821;SDS011;67012;53.712;10.728;2024-03-02T12:06:10;12.43;;;7.68;;
77821;SDS011;67012;53.712;10.728;2024-03-02T12:08:36;10.05;;;6.72;;
77821;SDS011;67012;53.712;10.728;2024-03-02T12:11:01;10.10;;;6.57;;
77821;SDS011;67012;53.712;10.728;2024-03-02T12:13:27;10.45;;;6.20;;
77821;SDS011;67012;53.712;10.728;2024-03-02T12:15:55;9.02;;;5.65;;
77821;SDS011;67012;53.712;10.728;2024-03-02T12:18:23;8.88;;;5.95;;
77821;SDS011;67012;53.712;10.728;2024-03-02T12:20:49;9.10;;;6.38;;
77821;SDS011;67012;53.712;10.728;2024-03-02T12:23:17;10.18;;;6.22;;
77821;SDS011;67012;53.712;10.728;2024-03-02T12:25:42;10.65;;;5.97;;
77821;SDS011;67012;53.712;10.728;2024-03-02T12:28:08;8.10;;;5.63;;
77821;SDS011;67012;53.712;10.728;2024-03-02T12:30:35;12.30;;;7.23;;
77821;SDS011;67012;53.712;10.728;2024-03-02T12:33:00;9.98;;;6.47;;
77821;SDS011;67012;53.712;10.728;2024-03-02T12:35:25;10.37;;;5.93;;
77821;SDS011;67012;53.712;10.728;2024-03-02T12:37:51;9.27;;;5.63;;
77821;SDS011;67012;53.712;10.728;2024-03-02T12:40:17;8.52;;;6.03;;
77821;SDS011;67012;53.712;10.728;2024-03-02T12:42:43;10.43;;;6.22;;
77821;SDS011;67012;53.712;10.728;2024-03-02T12:45:08;9.25;;;6.30;;
77821;SDS011;67012;53.712;10.728;2024-03-02T12:47:34;8.95;;;5.32;;
77821;SDS011;67012;53.712;10.728;2024-03-02T12:49:59;7.93;;;5.78;;
77821;SDS011;67012;53.712;10.728;2024-03-02T12:52:25;10.20;;;6.38;;
77821;SDS011;67012;53.712;10.728;2024-03-02T12:54:50;9.05;;;5.45;;
77821;SDS011;67012;53.712;10.728;2024-03-02T12:57:18;10.57;;;6.40;;
77821;SDS011;67012;53.712;10.728;2024-03-02T12:59:47;10.55;;;6.82;;
77821;SDS011;67012;53.712;10.728;2024-03-02T13:02:18;10.93;;;6.85;;
77821;SDS011;67012;53.712;10.728;2024-03-02T13:04:44;10.68;;;6.60;;
77821;SDS011;67012;53.712;10.728;2024-03-02T13:07:09;9.13;;;6.07;;
77821;SDS011;67012;53.712;10.728;2024-03-02T13:09:35;10.10;;;6.63;;
77821;SDS011;67012;53.712;10.728;2024-03-02T13:12:00;8.13;;;5.50;;
77821;SDS011;67012;53.712;10.728;2024-03-02T13:14:25;9.23;;;5.43;;
77821;SDS011;67012;53.712;10.728;2024-03-02T13:16:51;8.25;;;5.82;;
77821;SDS011;67012;53.712;10.728;2024-03-02T13:19:17;9.77;;;5.78;;
77821;SDS011;67012;53.712;10.728;2024-03-02T13:21:43;10.02;;;6.40;;
77821;SDS011;67012;53.712;10.728;2024-03-02T13:24:09;11.87;;;6.27;;
77821;SDS011;67012;53.712;10.728;2024-03-02T13:26:34;11.63;;;5.50;;
77821;SDS011;67012;53.712;10.728;2024-03-02T13:28:59;9.23;;;6.43;;
77821;SDS011;67012;53.712;10.728;2024-03-02T13:31:24;8.67;;;5.53;;
77821;SDS011;67012;53.712;10.728;2024-03-02T13:33:49;7.90;;;5.07;;
77821;SDS011;67012;53.712;10.728;2024-03-02T13:36:15;9.67;;;5.87;;
77821;SDS011;67012;53.712;10.728;2024-03-02T13:38:40;10.50;;;6.17;;
77821;SDS011;67012;53.712;10.728;2024-03-02T13:41:05;9.73;;;6.33;;
77821;SDS011;67012;53.712;10.728;2024-03-02T13:43:30;9.57;;;6.50;;
77821;SDS011;67012;53.712;10.728;2024-03-02T13:46:00;11.32;;;6.55;;
77821;SDS011;67012;53.712;10.728;2024-03-02T13:48:25;10.70;;;6.00;;
77821;SDS011;67012;53.712;10.728;2024-03-02T13:50:51;10.80;;;6.10;;
77821;SDS011;67012;53.712;10.728;2024-03-02T13:53:17;9.85;;;6.18;;
77821;SDS011;67012;53.712;10.728;2024-03-02T13:55:42;7.90;;;5.47;;
77821;SDS011;67012;53.712;10.728;2024-03-02T13:58:08;11.30;;;6.60;;
77821;SDS011;67012;53.712;10.728;2024-03-02T14:00:33;23.95;;;6.32;;
77821;SDS011;67012;53.712;10.728;2024-03-02T14:02:58;10.30;;;6.07;;
77821;SDS011;67012;53.712;10.728;2024-03-02T14:05:24;9.53;;;5.47;;
77821;SDS011;67012;53.712;10.728;2024-03-02T14:07:49;9.30;;;5.33;;
77821;SDS011;67012;53.712;10.728;2024-03-02T14:10:14;7.83;;;5.10;;
77821;SDS011;67012;53.712;10.728;2024-03-02T14:12:40;10.13;;;5.68;;
77821;SDS011;67012;53.712;10.728;2024-03-02T14:15:06;9.48;;;6.03;;
77821;SDS011;67012;53.712;10.728;2024-03-02T14:17:31;9.45;;;5.82;;
77821;SDS011;67012;53.712;10.728;2024-03-02T14:19:57;9.45;;;6.25;;
77821;SDS011;67012;53.712;10.728;2024-03-02T14:22:24;9.45;;;6.20;;
77821;SDS011;67012;53.712;10.728;2024-03-02T14:24:49;7.73;;;6.53;;
77821;SDS011;67012;53.712;10.728;2024-03-02T14:27:14;8.70;;;5.43;;
77821;SDS011;67012;53.712;10.728;2024-03-02T14:29:40;9.13;;;5.63;;
77821;SDS011;67012;53.712;10.728;2024-03-02T14:32:05;9.13;;;5.82;;
77821;SDS011;67012;53.712;10.728;2024-03-02T14:34:30;6.68;;;4.90;;
77821;SDS011;67012;53.712;10.728;2024-03-02T14:36:55;7.23;;;4.97;;
77821;SDS011;67012;53.712;10.728;2024-03-02T14:39:21;8.67;;;5.07;;
77821;SDS011;67012;53.712;10.728;2024-03-02T14:41:46;8.87;;;5.90;;
77821;SDS011;67012;53.712;10.728;2024-03-02T14:44:11;9.90;;;5.60;;
77821;SDS011;67012;53.712;10.728;2024-03-02T14:46:36;9.03;;;6.07;;
77821;SDS011;67012;53.712;10.728;2024-03-02T14:49:02;8.98;;;6.20;;
77821;SDS011;67012;53.712;10.728;2024-03-02T14:51:27;10.30;;;6.00;;
77821;SDS011;67012;53.712;10.728;2024-03-02T14:53:55;11.05;;;6.28;;
77821;SDS011;67012;53.712;10.728;2024-03-02T14:56:20;9.83;;;6.33;;
77821;SDS011;67012;53.712;10.728;2024-03-02T14:58:45;8.93;;;6.10;;
77821;SDS011;67012;53.712;10.728;2024-03-02T15:01:10;10.63;;;6.90;;
77821;SDS011;67012;53.712;10.728;2024-03-02T15:03:36;15.40;;;9.27;;
77821;SDS011;67012;53.712;10.728;2024-03-02T15:06:01;14.87;;;9.07;;
77821;SDS011;67012;53.712;10.728;2024-03-02T15:08:28;12.88;;;7.63;;
77821;SDS011;67012;53.712;10.728;2024-03-02T15:10:54;11.47;;;6.90;;
77821;SDS011;67012;53.712;10.728;2024-03-02T15:13:24;23.15;;;18.17;;
77821;SDS011;67012;53.712;10.728;2024-03-02T15:15:50;54.70;;;37.83;;
77821;SDS011;67012;53.712;10.728;2024-03-02T15:18:15;19.80;;;13.15;;
77821;SDS011;67012;53.712;10.728;2024-03-02T15:20:41;26.43;;;18.07;;
77821;SDS011;67012;53.712;10.728;2024-03-02T15:23:06;13.53;;;8.70;;
77821;SDS011;67012;53.712;10.728;2024-03-02T15:25:31;12.73;;;8.93;;
77821;SDS011;67012;53.712;10.728;2024-03-02T15:27:56;13.33;;;9.07;;
77821;SDS011;67012;53.712;10.728;2024-03-02T15:30:21;14.80;;;8.93;;
77821;SDS011;67012;53.712;10.728;2024-03-02T15:32:47;12.57;;;8.20;;
77821;SDS011;67012;53.712;10.728;2024-03-02T15:35:12;14.07;;;8.10;;
77821;SDS011;67012;53.712;10.728;2024-03-02T15:37:37;15.20;;;8.10;;
77821;SDS011;67012;53.712;10.728;2024-03-02T15:40:02;14.20;;;8.60;;
77821;SDS011;67012;53.712;10.728;2024-03-02T15:42:34;14.05;;;8.15;;
77821;SDS011;67012;53.712;10.728;2024-03-02T15:44:59;15.15;;;8.52;;
77821;SDS011;67012;53.712;10.728;2024-03-02T15:47:25;12.97;;;7.97;;
77821;SDS011;67012;53.712;10.728;2024-03-02T15:49:50;13.90;;;8.10;;
77821;SDS011;67012;53.712;10.728;2024-03-02T15:52:15;14.05;;;8.75;;
77821;SDS011;67012;53.712;10.728;2024-03-02T15:54:43;14.30;;;9.10;;
77821;SDS011;67012;53.712;10.728;2024-03-02T15:57:08;12.27;;;8.52;;
77821;SDS011;67012;53.712;10.728;2024-03-02T15:59:34;14.05;;;8.88;;
77821;SDS011;67012;53.712;10.728;2024-03-02T16:01:59;12.43;;;7.90;;
77821;SDS011;67012;53.712;10.728;2024-03-02T16:04:24;14.30;;;9.37;;
77821;SDS011;67012;53.712;10.728;2024-03-02T16:06:49;14.70;;;9.00;;
77821;SDS011;67012;53.712;10.728;2024-03-02T16:09:14;13.57;;;8.47;;
77821;SDS011;67012;53.712;10.728;2024-03-02T16:11:40;13.20;;;8.17;;
77821;SDS011;67012;53.712;10.728;2024-03-02T16:14:05;15.13;;;10.57;;
77821;SDS011;67012;53.712;10.728;2024-03-02T16:16:30;11.50;;;8.60;;
77821;SDS011;67012;53.712;10.728;2024-03-02T16:18:55;14.70;;;7.97;;
77821;SDS011;67012;53.712;10.728;2024-03-02T16:21:20;12.30;;;7.60;;
77821;SDS011;67012;53.712;10.728;2024-03-02T16:23:50;14.13;;;8.52;;
77821;SDS011;67012;53.712;10.728;2024-03-02T16:26:15;11.47;;;8.00;;
77821;SDS011;67012;53.712;10.728;2024-03-02T16:28:40;12.50;;;8.87;;
77821;SDS011;67012;53.712;10.728;2024-03-02T16:31:05;11.43;;;8.63;;
77821;SDS011;67012;53.712;10.728;2024-03-02T16:33:30;15.03;;;9.57;;
77821;SDS011;67012;53.712;10.728;2024-03-02T16:35:56;14.33;;;9.23;;
77821;SDS011;67012;53.712;10.728;2024-03-02T16:38:21;13.73;;;8.87;;
77821;SDS011;67012;53.712;10.728;2024-03-02T16:40:46;12.73;;;8.60;;
77821;SDS011;67012;53.712;10.728;2024-03-02T16:43:13;11.98;;;7.93;;
77821;SDS011;67012;53.712;10.728;2024-03-02T16:45:38;17.90;;;11.07;;
77821;SDS011;67012;53.712;10.728;2024-03-02T16:48:03;15.00;;;8.77;;
